Coral Canyon GC
1925 N Canyon Greens Drive, Washington
Last Weather Update:10/30/2011 11:00:00 PM
Date
ETo
ETc
Rain
Irrigation
Req
Temp
Max
Temp
Min
Temp
Avg
Avg RH
Avg Wind
Avg Solar
inches
inches
incehs
inches
F
F
F
%
%
watts/m2
9/1/2011 0.26" 0.20" 0.00" 0.20" 100.0° 64.8° 83.7° 17.5% 3.9 MPH 276.9w/m2
9/2/2011 0.23" 0.18" 0.00" 0.18" 99.0° 61.6° 79.4° 21.0% 2.7 MPH 284.8w/m2
9/3/2011 0.20" 0.16" 0.00" 0.16" 99.4° 54.7° 78.2° 20.2% 2.2 MPH 254.3w/m2
9/4/2011 0.21" 0.16" 0.00" 0.16" 101.6° 58.8° 79.8° 23.0% 2.4 MPH 265.7w/m2
9/5/2011 0.09" 0.07" 0.00" 0.07" 84.1° 64.6° 74.4° 37.2% 2.8 MPH 65.3w/m2
9/6/2011 0.19" 0.15" 0.00" 0.15" 92.7° 62.2° 76.7° 45.9% 2.4 MPH 250.3w/m2
9/7/2011 0.23" 0.17" 0.00" 0.17" 96.0° 60.1° 82.7° 23.0% 3.6 MPH 264.7w/m2
9/8/2011 0.21" 0.16" 0.00" 0.16" 96.6° 63.6° 81.8° 20.8% 3.0 MPH 251.1w/m2
9/9/2011 0.20" 0.15" 0.25" -0.05" 93.0° 67.9° 79.6° 22.2% 3.9 MPH 197.7w/m2
9/10/2011 0.19" 0.14" 0.00" 0.14" 88.8° 55.8° 73.4° 39.4% 3.2 MPH 222.3w/m2
9/11/2011 0.12" 0.09" 0.26" -0.12" 81.5° 62.1° 69.8° 52.8% 3.6 MPH 110.3w/m2
9/12/2011 0.15" 0.11" 0.05" 0.07" 84.6° 55.1° 70.4° 56.9% 2.0 MPH 214.9w/m2
9/13/2011 0.13" 0.09" 0.00" 0.09" 80.9° 63.0° 70.6° 55.1% 2.9 MPH 159.3w/m2
9/14/2011 0.11" 0.07" 0.09" 0.00" 80.0° 56.8° 65.8° 71.8% 2.2 MPH 144.2w/m2
9/15/2011 0.16" 0.11" 0.00" 0.11" 82.6° 51.3° 65.6° 64.7% 1.6 MPH 251.9w/m2
9/16/2011 0.18" 0.13" 0.00" 0.13" 86.4° 58.9° 72.8° 47.5% 3.5 MPH 234.4w/m2
9/17/2011 0.19" 0.13" 0.00" 0.13" 87.8° 59.9° 73.6° 41.7% 3.2 MPH 243.0w/m2
9/18/2011 0.18" 0.12" 0.00" 0.12" 90.3° 56.8° 72.4° 38.9% 2.5 MPH 246.4w/m2
9/19/2011 0.18" 0.12" 0.00" 0.12" 93.9° 56.3° 74.0° 36.5% 2.5 MPH 246.0w/m2
9/20/2011 0.19" 0.13" 0.00" 0.13" 95.0° 55.7° 75.0° 33.3% 2.8 MPH 246.3w/m2
9/21/2011 0.19" 0.13" 0.00" 0.13" 97.1° 53.9° 75.2° 29.7% 2.9 MPH 244.1w/m2
9/22/2011 0.19" 0.12" 0.00" 0.12" 96.1° 54.8° 77.1° 22.8% 2.8 MPH 244.3w/m2
9/23/2011 0.18" 0.12" 0.00" 0.12" 96.5° 50.8° 75.0° 22.7% 2.4 MPH 247.1w/m2
9/24/2011 0.18" 0.12" 0.00" 0.12" 95.9° 50.7° 75.1° 22.1% 2.7 MPH 229.1w/m2
9/25/2011 0.18" 0.12" 0.00" 0.12" 93.4° 54.4° 75.9° 28.5% 2.6 MPH 236.1w/m2
9/26/2011 0.17" 0.11" 0.00" 0.11" 93.6° 53.8° 75.0° 29.7% 2.2 MPH 235.9w/m2
9/27/2011 0.16" 0.10" 0.00" 0.10" 94.1° 52.1° 72.3° 34.0% 2.0 MPH 232.4w/m2
9/28/2011 0.17" 0.11" 0.00" 0.11" 96.8° 51.5° 72.9° 31.4% 2.4 MPH 229.2w/m2
9/29/2011 0.17" 0.10" 0.00" 0.10" 97.1° 52.8° 74.3° 29.6% 2.0 MPH 228.9w/m2
9/30/2011 0.19" 0.11" 0.00" 0.11" 95.3° 54.5° 77.6° 25.1% 3.2 MPH 213.5w/m2
Totals: 5.41" 3.78" 0.65" 3.26" 101.6° 50.7° 75.0° 34.8% 2.7 MPH 225.7w/m2